createdAt,value
2024-04-22T00:00:09.256Z,95099.00
2024-04-22T00:01:09.311Z,95097.00
2024-04-22T00:02:09.269Z,95100.00
2024-04-22T00:03:09.261Z,95097.00
2024-04-22T00:04:09.377Z,95094.00
2024-04-22T00:05:09.269Z,95093.00
2024-04-22T00:06:09.262Z,95093.00
2024-04-22T00:07:09.305Z,95094.00
2024-04-22T00:08:09.260Z,95095.00
2024-04-22T00:09:09.276Z,95092.00
2024-04-22T00:10:09.347Z,95093.00
2024-04-22T00:11:09.402Z,95092.00
2024-04-22T00:12:09.266Z,95092.00
2024-04-22T00:13:09.303Z,95088.00
2024-04-22T00:14:09.286Z,95090.00
2024-04-22T00:15:09.293Z,95089.00
2024-04-22T00:16:09.321Z,95092.00
2024-04-22T00:17:09.331Z,95088.00
2024-04-22T00:18:09.326Z,95090.00
2024-04-22T00:19:09.339Z,95091.00
2024-04-22T00:20:09.315Z,95090.00
2024-04-22T00:21:09.316Z,95091.00
2024-04-22T00:22:09.388Z,95094.00
2024-04-22T00:23:09.305Z,95093.00
2024-04-22T00:24:09.332Z,95094.00
2024-04-22T00:25:09.346Z,95092.00
2024-04-22T00:26:09.327Z,95093.00
2024-04-22T00:27:09.457Z,95094.00
2024-04-22T00:28:09.429Z,95093.00
2024-04-22T00:29:09.381Z,95094.00
2024-04-22T00:30:09.376Z,95093.00
2024-04-22T00:31:09.390Z,95092.00
2024-04-22T00:32:09.414Z,95091.00
2024-04-22T00:33:09.457Z,95092.00
2024-04-22T00:34:09.412Z,95092.00
2024-04-22T00:35:09.378Z,95091.00
2024-04-22T00:36:09.387Z,95090.00
2024-04-22T00:37:09.425Z,95092.00
2024-04-22T00:38:09.426Z,95092.00
2024-04-22T00:39:09.407Z,95090.00
2024-04-22T00:40:09.422Z,95089.00
2024-04-22T00:41:09.408Z,95087.00
2024-04-22T00:42:09.443Z,95087.00
2024-04-22T00:43:09.486Z,95088.00
2024-04-22T00:44:09.462Z,95088.00
2024-04-22T00:45:09.441Z,95084.00
2024-04-22T00:46:09.498Z,95085.00
2024-04-22T00:47:09.511Z,95085.00
2024-04-22T00:48:09.642Z,95084.00
2024-04-22T00:49:09.721Z,95082.00
2024-04-22T00:50:09.797Z,95081.00
2024-04-22T00:51:09.906Z,95080.00
2024-04-22T00:52:10.061Z,95080.00
2024-04-22T00:53:10.123Z,95078.00
2024-04-22T00:54:10.231Z,95077.00
2024-04-22T00:55:10.448Z,95075.00
2024-04-22T00:56:10.507Z,95074.00
2024-04-22T00:57:10.557Z,95073.00
2024-04-22T00:58:10.689Z,95070.00
2024-04-22T00:59:10.821Z,95071.00
2024-04-22T01:00:10.898Z,95072.00
2024-04-22T01:01:11.146Z,95072.00
2024-04-22T01:02:11.124Z,95072.00
2024-04-22T01:03:11.262Z,95074.00
2024-04-22T01:04:11.438Z,95074.00
2024-04-22T01:05:11.540Z,95073.00
2024-04-22T01:06:11.567Z,95075.00
2024-04-22T01:07:11.719Z,95080.00
2024-04-22T01:08:11.774Z,95078.00
2024-04-22T01:09:11.882Z,95079.00
2024-04-22T01:10:12.008Z,95078.00
2024-04-22T01:11:12.114Z,95078.00
2024-04-22T01:12:12.209Z,95080.00
2024-04-22T01:13:12.368Z,95080.00
2024-04-22T01:14:12.476Z,95079.00
2024-04-22T01:15:12.538Z,95079.00
2024-04-22T01:16:12.681Z,95080.00
2024-04-22T01:17:12.786Z,95081.00
2024-04-22T01:18:12.893Z,95081.00
2024-04-22T01:19:13.016Z,95078.00
2024-04-22T01:20:13.079Z,95079.00
2024-04-22T01:21:13.192Z,95076.00
2024-04-22T01:22:13.343Z,95075.00
2024-04-22T01:23:13.420Z,95074.00
2024-04-22T01:24:13.504Z,95075.00
2024-04-22T01:25:13.640Z,95075.00
2024-04-22T01:26:13.726Z,95075.00
2024-04-22T01:27:13.851Z,95074.00
2024-04-22T01:28:13.988Z,95074.00
2024-04-22T01:29:14.062Z,95071.00
2024-04-22T01:30:14.189Z,95069.00
2024-04-22T01:31:14.300Z,95069.00
2024-04-22T01:32:14.397Z,95068.00
2024-04-22T01:33:14.587Z,95065.00
2024-04-22T01:34:14.613Z,95064.00
2024-04-22T01:35:14.715Z,95064.00
2024-04-22T01:36:14.820Z,95064.00
2024-04-22T01:37:14.935Z,95062.00
2024-04-22T01:38:15.044Z,95062.00
2024-04-22T01:39:15.152Z,95064.00
2024-04-22T01:40:15.317Z,95062.00
2024-04-22T01:41:15.366Z,95061.00
2024-04-22T01:42:15.490Z,95062.00
2024-04-22T01:43:15.702Z,95059.00
2024-04-22T01:44:15.706Z,95060.00
2024-04-22T01:45:15.828Z,95059.00
2024-04-22T01:46:16.012Z,95058.00
2024-04-22T01:47:16.044Z,95057.00
2024-04-22T01:48:16.116Z,95057.00
2024-04-22T01:49:16.256Z,95055.00
2024-04-22T01:50:16.332Z,95055.00
2024-04-22T01:51:16.438Z,95053.00
2024-04-22T01:52:16.658Z,95052.00
2024-04-22T01:53:16.678Z,95052.00
2024-04-22T01:54:16.763Z,95054.00
2024-04-22T01:55:16.922Z,95053.00
2024-04-22T01:56:16.984Z,95054.00
2024-04-22T01:57:17.234Z,95056.00
2024-04-22T01:58:17.302Z,95055.00
2024-04-22T01:59:17.319Z,95056.00
2024-04-22T02:00:17.432Z,95053.00
2024-04-22T02:01:17.579Z,95052.00
2024-04-22T02:02:17.699Z,95053.00
2024-04-22T02:03:17.802Z,95052.00
2024-04-22T02:04:17.869Z,95052.00
2024-04-22T02:05:17.965Z,95051.00
2024-04-22T02:06:18.079Z,95053.00
2024-04-22T02:07:18.184Z,95050.00
2024-04-22T02:08:18.279Z,95049.00
2024-04-22T02:09:18.383Z,95047.00
2024-04-22T02:10:23.388Z,95047.00
2024-04-22T02:11:18.577Z,95044.00
2024-04-22T02:12:18.511Z,95042.00
2024-04-22T02:13:18.567Z,95039.00
2024-04-22T02:14:18.512Z,95039.00
2024-04-22T02:15:18.605Z,95036.00
2024-04-22T02:16:18.588Z,95036.00
2024-04-22T02:17:18.600Z,95037.00
2024-04-22T02:18:18.664Z,95035.00
2024-04-22T02:19:18.588Z,95036.00
2024-04-22T02:20:18.570Z,95035.00
2024-04-22T02:21:18.579Z,95038.00
2024-04-22T02:22:18.624Z,95039.00
2024-04-22T02:23:18.587Z,95036.00
2024-04-22T02:24:18.581Z,95038.00
2024-04-22T02:25:18.594Z,95038.00
2024-04-22T02:26:18.588Z,95039.00
2024-04-22T02:27:18.581Z,95038.00
2024-04-22T02:28:18.626Z,95038.00
2024-04-22T02:29:18.630Z,95039.00
2024-04-22T02:30:18.617Z,95040.00
2024-04-22T02:31:18.647Z,95036.00
2024-04-22T02:32:18.599Z,95040.00
2024-04-22T02:33:18.694Z,95037.00
2024-04-22T02:34:18.675Z,95038.00
2024-04-22T02:35:18.643Z,95038.00
2024-04-22T02:36:18.639Z,95041.00
2024-04-22T02:37:18.660Z,95039.00
2024-04-22T02:38:18.635Z,95035.00
2024-04-22T02:39:18.635Z,95036.00
2024-04-22T02:40:18.670Z,95034.00
2024-04-22T02:41:18.641Z,95035.00
2024-04-22T02:42:18.641Z,95032.00
2024-04-22T02:43:18.654Z,95033.00
2024-04-22T02:44:18.650Z,95032.00
2024-04-22T02:45:18.644Z,95031.00
2024-04-22T02:46:18.770Z,95031.00
2024-04-22T02:47:18.886Z,95031.00
2024-04-22T02:48:19.029Z,95026.00
2024-04-22T02:49:19.088Z,95028.00
2024-04-22T02:50:19.216Z,95027.00
2024-04-22T02:51:19.308Z,95029.00
2024-04-22T02:52:19.410Z,95028.00
2024-04-22T02:53:19.518Z,95029.00
2024-04-22T02:54:19.634Z,95030.00
2024-04-22T02:55:19.752Z,95031.00
2024-04-22T02:56:19.854Z,95031.00
2024-04-22T02:57:19.949Z,95030.00
2024-04-22T02:58:20.071Z,95028.00
2024-04-22T02:59:20.184Z,95027.00
2024-04-22T03:00:20.284Z,95024.00
2024-04-22T03:01:20.434Z,95025.00
2024-04-22T03:02:20.527Z,95026.00
2024-04-22T03:03:20.638Z,95028.00
2024-04-22T03:04:20.780Z,95030.00
2024-04-22T03:05:20.842Z,95030.00
2024-04-22T03:06:20.965Z,95030.00
2024-04-22T03:07:21.077Z,95032.00
2024-04-22T03:08:21.167Z,95031.00
2024-04-22T03:09:21.282Z,95031.00
2024-04-22T03:10:21.443Z,95034.00
2024-04-22T03:11:21.552Z,95032.00
2024-04-22T03:12:21.612Z,95031.00
2024-04-22T03:13:21.829Z,95031.00
2024-04-22T03:14:21.833Z,95030.00
2024-04-22T03:15:21.930Z,95030.00
2024-04-22T03:16:22.081Z,95029.00
2024-04-22T03:17:22.200Z,95027.00
2024-04-22T03:18:22.281Z,95026.00
2024-04-22T03:19:22.446Z,95026.00
2024-04-22T03:20:24.679Z,95027.00
2024-04-22T03:21:22.511Z,95027.00
2024-04-22T03:22:22.547Z,95025.00
2024-04-22T03:23:22.477Z,95029.00
2024-04-22T03:24:22.482Z,95027.00
2024-04-22T03:25:22.544Z,95027.00
2024-04-22T03:26:22.532Z,95028.00
2024-04-22T03:27:22.536Z,95028.00
2024-04-22T03:28:22.564Z,95030.00
2024-04-22T03:29:22.538Z,95027.00
2024-04-22T03:30:22.523Z,95029.00
2024-04-22T03:31:22.630Z,95029.00
2024-04-22T03:32:22.635Z,95028.00
2024-04-22T03:33:22.543Z,95027.00
2024-04-22T03:34:22.599Z,95026.00
2024-04-22T03:35:22.540Z,95025.00
2024-04-22T03:36:22.547Z,95026.00
2024-04-22T03:37:22.623Z,95026.00
2024-04-22T03:38:22.540Z,95026.00
2024-04-22T03:39:22.593Z,95027.00
2024-04-22T03:40:22.609Z,95025.00
2024-04-22T03:41:22.581Z,95028.00
2024-04-22T03:42:22.588Z,95026.00
2024-04-22T03:43:22.620Z,95025.00
2024-04-22T03:44:22.597Z,95024.00
2024-04-22T03:45:22.639Z,95025.00
2024-04-22T03:46:22.638Z,95023.00
2024-04-22T03:47:22.732Z,95024.00
2024-04-22T03:48:22.647Z,95020.00
2024-04-22T03:49:22.678Z,95022.00
2024-04-22T03:50:22.640Z,95022.00
2024-04-22T03:51:22.646Z,95021.00
2024-04-22T03:52:22.796Z,95023.00
2024-04-22T03:53:22.648Z,95020.00
2024-04-22T03:54:22.648Z,95020.00
2024-04-22T03:55:22.652Z,95021.00
2024-04-22T03:56:22.791Z,95020.00
2024-04-22T03:57:22.913Z,95022.00
2024-04-22T03:58:23.040Z,95021.00
2024-04-22T03:59:23.083Z,95020.00
2024-04-22T04:00:24.574Z,95021.00
2024-04-22T04:01:22.523Z,95020.00
2024-04-22T04:02:23.254Z,95021.00
2024-04-22T04:03:23.275Z,95023.00
2024-04-22T04:04:23.429Z,95021.00
2024-04-22T04:05:23.637Z,95021.00
2024-04-22T04:06:23.244Z,95022.00
2024-04-22T04:07:23.247Z,95022.00
2024-04-22T04:08:23.225Z,95022.00
2024-04-22T04:09:23.247Z,95022.00
2024-04-22T04:10:23.270Z,95019.00
2024-04-22T04:11:23.291Z,95020.00
2024-04-22T04:12:23.230Z,95021.00
2024-04-22T04:13:23.261Z,95022.00
2024-04-22T04:14:23.257Z,95023.00
2024-04-22T04:15:23.230Z,95021.00
2024-04-22T04:16:23.296Z,95019.00
2024-04-22T04:17:23.350Z,95019.00
2024-04-22T04:18:23.247Z,95020.00
2024-04-22T04:19:23.356Z,95020.00
2024-04-22T04:20:23.258Z,95018.00
2024-04-22T04:21:30.282Z,95016.00
2024-04-22T04:22:31.369Z,95018.00
2024-04-22T04:23:31.287Z,95017.00
2024-04-22T04:24:31.318Z,95017.00
2024-04-22T04:25:31.310Z,95015.00
2024-04-22T04:26:31.315Z,95014.00
2024-04-22T04:27:31.292Z,95015.00
2024-04-22T04:28:31.453Z,95015.00
2024-04-22T04:29:31.312Z,95017.00
2024-04-22T04:30:31.308Z,95016.00
2024-04-22T04:31:38.538Z,95016.00
2024-04-22T04:32:39.400Z,95017.00
2024-04-22T04:33:39.355Z,95018.00
2024-04-22T04:34:39.442Z,95021.00
2024-04-22T04:35:39.361Z,95020.00
2024-04-22T04:36:39.354Z,95018.00
2024-04-22T04:37:39.464Z,95018.00
2024-04-22T04:38:39.348Z,95019.00
2024-04-22T04:39:39.368Z,95019.00
2024-04-22T04:40:39.380Z,95020.00
2024-04-22T04:41:39.351Z,95021.00
2024-04-22T04:42:39.353Z,95022.00
2024-04-22T04:43:39.454Z,95022.00
2024-04-22T04:44:39.356Z,95022.00
2024-04-22T04:45:39.357Z,95021.00
2024-04-22T04:46:39.374Z,95022.00
2024-04-22T04:47:39.411Z,95022.00
2024-04-22T04:48:39.349Z,95023.00
2024-04-22T04:49:39.434Z,95023.00
2024-04-22T04:50:39.355Z,95024.00
2024-04-22T04:51:39.361Z,95022.00
2024-04-22T04:52:39.450Z,95023.00
2024-04-22T04:53:39.389Z,95024.00
2024-04-22T04:54:39.390Z,95024.00
2024-04-22T04:55:39.466Z,95023.00
2024-04-22T04:56:39.366Z,95027.00
2024-04-22T04:57:39.367Z,95024.00
2024-04-22T04:58:39.432Z,95025.00
2024-04-22T04:59:39.393Z,95027.00
2024-04-22T05:00:39.455Z,95029.00
2024-04-22T05:01:39.538Z,95029.00
2024-04-22T05:02:39.477Z,95030.00
2024-04-22T05:03:39.459Z,95031.00
2024-04-22T05:04:39.457Z,95031.00
2024-04-22T05:05:39.426Z,95030.00
2024-04-22T05:06:39.428Z,95028.00
2024-04-22T05:07:39.469Z,95027.00
2024-04-22T05:08:39.407Z,95027.00
2024-04-22T05:09:39.418Z,95027.00
2024-04-22T05:10:39.462Z,95027.00
2024-04-22T05:11:39.452Z,95025.00
2024-04-22T05:12:39.427Z,95024.00
2024-04-22T05:13:39.462Z,95025.00
2024-04-22T05:14:39.430Z,95022.00
2024-04-22T05:15:39.452Z,95022.00
2024-04-22T05:16:39.460Z,95021.00
2024-04-22T05:17:39.553Z,95021.00
2024-04-22T05:18:42.467Z,95022.00
2024-04-22T05:19:39.620Z,95022.00
2024-04-22T05:20:39.526Z,95022.00
2024-04-22T05:21:39.522Z,95020.00
2024-04-22T05:22:39.583Z,95020.00
2024-04-22T05:23:39.526Z,95020.00
2024-04-22T05:24:39.533Z,95019.00
2024-04-22T05:25:39.571Z,95019.00
2024-04-22T05:26:39.664Z,95024.00
2024-04-22T05:27:39.999Z,95023.00
2024-04-22T05:28:39.918Z,95020.00
2024-04-22T05:29:39.975Z,95021.00
2024-04-22T05:30:40.082Z,95020.00
2024-04-22T05:31:40.263Z,95023.00
2024-04-22T05:32:40.436Z,95022.00
2024-04-22T05:33:40.420Z,95022.00
2024-04-22T05:34:40.585Z,95022.00
2024-04-22T05:35:40.588Z,95023.00
2024-04-22T05:36:40.697Z,95020.00
2024-04-22T05:37:40.880Z,95023.00
2024-04-22T05:38:40.931Z,95020.00
2024-04-22T05:39:40.999Z,95022.00
2024-04-22T05:40:41.121Z,95020.00
2024-04-22T05:41:41.193Z,95019.00
2024-04-22T05:42:41.228Z,95019.00
2024-04-22T05:43:41.504Z,95020.00
2024-04-22T05:44:41.431Z,95022.00
2024-04-22T05:45:41.514Z,95021.00
2024-04-22T05:46:41.721Z,95023.00
2024-04-22T05:47:41.746Z,95022.00
2024-04-22T05:48:41.789Z,95024.00
2024-04-22T05:49:41.884Z,95025.00
2024-04-22T05:50:41.944Z,95024.00
2024-04-22T05:51:41.967Z,95023.00
2024-04-22T05:52:42.544Z,95026.00
2024-04-22T05:53:42.102Z,95023.00
2024-04-22T05:54:42.132Z,95024.00
2024-04-22T05:55:42.350Z,95022.00
2024-04-22T05:56:42.499Z,95024.00
2024-04-22T05:57:42.254Z,95025.00
2024-04-22T05:58:42.416Z,95027.00
2024-04-22T05:59:42.355Z,95024.00
2024-04-22T06:00:42.510Z,95025.00
2024-04-22T06:01:42.542Z,95026.00
2024-04-22T06:02:42.755Z,95027.00
2024-04-22T06:03:42.683Z,95027.00
2024-04-22T06:04:42.760Z,95027.00
2024-04-22T06:05:42.763Z,95025.00
2024-04-22T06:06:42.893Z,95025.00
2024-04-22T06:07:43.114Z,95029.00
2024-04-22T06:08:43.136Z,95031.00
2024-04-22T06:09:43.235Z,95029.00
2024-04-22T06:10:43.487Z,95031.00
2024-04-22T06:11:53.365Z,95032.00
2024-04-22T06:12:43.440Z,95033.00
2024-04-22T06:13:43.599Z,95035.00
2024-04-22T06:14:43.425Z,95035.00
2024-04-22T06:15:43.467Z,95035.00
2024-04-22T06:16:43.555Z,95038.00
2024-04-22T06:17:43.430Z,95041.00
2024-04-22T06:18:43.439Z,95040.00
2024-04-22T06:19:43.551Z,95039.00
2024-04-22T06:20:43.449Z,95042.00
2024-04-22T06:21:43.456Z,95042.00
2024-04-22T06:22:43.469Z,95045.00
2024-04-22T06:23:43.451Z,95046.00
2024-04-22T06:24:43.448Z,95044.00
2024-04-22T06:25:43.533Z,95045.00
2024-04-22T06:26:43.485Z,95044.00
2024-04-22T06:27:43.463Z,95044.00
2024-04-22T06:28:43.678Z,95044.00
2024-04-22T06:29:44.494Z,95044.00
2024-04-22T06:30:43.496Z,95044.00
2024-04-22T06:31:43.613Z,95044.00
2024-04-22T06:32:43.559Z,95042.00
2024-04-22T06:33:43.510Z,95042.00
2024-04-22T06:34:43.591Z,95042.00
2024-04-22T06:35:43.527Z,95043.00
2024-04-22T06:36:44.011Z,95042.00
2024-04-22T06:37:43.715Z,95044.00
2024-04-22T06:38:43.779Z,95042.00
2024-04-22T06:39:43.874Z,95044.00
2024-04-22T06:40:44.028Z,95045.00
2024-04-22T06:41:44.107Z,95043.00
2024-04-22T06:42:44.508Z,95043.00
2024-04-22T06:43:44.280Z,95045.00
2024-04-22T06:44:44.368Z,95043.00
2024-04-22T06:45:44.573Z,95047.00
2024-04-22T06:46:44.690Z,95045.00
2024-04-22T06:47:45.153Z,95046.00
2024-04-22T06:48:44.732Z,95045.00
2024-04-22T06:49:44.874Z,95042.00
2024-04-22T06:50:44.840Z,95046.00
2024-04-22T06:51:44.910Z,95044.00
2024-04-22T06:52:45.032Z,95046.00
2024-04-22T06:53:45.014Z,95043.00
2024-04-22T06:54:45.069Z,95045.00
2024-04-22T06:55:45.213Z,95043.00
2024-04-22T06:56:46.344Z,95047.00
2024-04-22T06:57:45.312Z,95044.00
2024-04-22T06:58:45.509Z,95045.00
2024-04-22T06:59:45.448Z,95044.00
2024-04-22T07:00:45.553Z,95046.00
2024-04-22T07:01:45.694Z,95046.00
2024-04-22T07:02:45.704Z,95046.00
2024-04-22T07:03:45.897Z,95044.00
2024-04-22T07:04:45.878Z,95044.00
2024-04-22T07:05:45.862Z,95045.00
2024-04-22T07:06:45.913Z,95043.00
2024-04-22T07:07:46.053Z,95044.00
2024-04-22T07:08:46.071Z,95043.00
2024-04-22T07:09:46.174Z,95041.00
2024-04-22T07:10:46.297Z,95040.00
2024-04-22T07:11:46.392Z,95039.00
2024-04-22T07:12:46.513Z,95041.00
2024-04-22T07:13:46.664Z,95041.00
2024-04-22T07:14:46.751Z,95040.00
2024-04-22T07:15:46.793Z,95039.00
2024-04-22T07:16:47.092Z,95040.00
2024-04-22T07:17:47.115Z,95039.00
2024-04-22T07:18:48.284Z,95040.00
2024-04-22T07:19:47.190Z,95039.00
2024-04-22T07:20:47.090Z,95040.00
2024-04-22T07:21:47.117Z,95037.00
2024-04-22T07:22:47.152Z,95038.00
2024-04-22T07:23:47.126Z,95037.00
2024-04-22T07:24:57.140Z,95040.00
2024-04-22T07:25:47.224Z,95037.00
2024-04-22T07:26:47.130Z,95036.00
2024-04-22T07:27:47.133Z,95036.00
2024-04-22T07:28:47.173Z,95036.00
2024-04-22T07:29:47.167Z,95037.00
2024-04-22T07:30:47.174Z,95035.00
2024-04-22T07:31:47.295Z,95035.00
2024-04-22T07:32:47.651Z,95035.00
2024-04-22T07:33:47.212Z,95035.00
2024-04-22T07:34:47.278Z,95034.00
2024-04-22T07:35:47.315Z,95034.00
2024-04-22T07:36:47.221Z,95036.00
2024-04-22T07:37:47.602Z,95036.00
2024-04-22T07:38:47.202Z,95036.00
2024-04-22T07:39:48.410Z,95036.00
2024-04-22T07:40:47.351Z,95038.00
2024-04-22T07:41:47.259Z,95037.00
2024-04-22T07:42:47.224Z,95038.00
2024-04-22T07:43:47.598Z,95035.00
2024-04-22T07:44:47.250Z,95034.00
2024-04-22T07:45:47.247Z,95036.00
2024-04-22T07:46:47.281Z,95038.00
2024-04-22T07:47:47.274Z,95037.00
2024-04-22T07:48:47.241Z,95037.00
2024-04-22T07:49:47.279Z,95037.00
2024-04-22T07:50:47.232Z,95038.00
2024-04-22T07:51:47.264Z,95036.00
2024-04-22T07:52:47.602Z,95034.00
2024-04-22T07:53:47.242Z,95035.00
2024-04-22T07:54:47.248Z,95036.00
2024-04-22T07:55:47.358Z,95034.00
2024-04-22T07:56:50.112Z,95034.00
2024-04-22T07:57:47.618Z,95035.00
2024-04-22T07:58:47.374Z,95037.00
2024-04-22T07:59:47.252Z,95037.00
2024-04-22T08:00:47.454Z,95041.00
2024-04-22T08:01:47.365Z,95041.00
2024-04-22T08:02:47.332Z,95041.00
2024-04-22T08:03:47.794Z,95039.00
2024-04-22T08:04:47.384Z,95042.00
2024-04-22T08:05:47.459Z,95039.00
2024-04-22T08:06:47.350Z,95041.00
2024-04-22T08:07:47.700Z,95041.00
2024-04-22T08:08:47.360Z,95039.00
2024-04-22T08:09:47.667Z,95041.00
2024-04-22T08:10:47.660Z,95040.00
2024-04-22T08:11:47.813Z,95041.00
2024-04-22T08:12:47.443Z,95042.00
2024-04-22T08:13:47.713Z,95044.00
2024-04-22T08:14:47.524Z,95043.00
2024-04-22T08:15:47.517Z,95045.00
2024-04-22T08:16:47.725Z,95045.00
2024-04-22T08:17:47.728Z,95047.00
2024-04-22T08:18:47.453Z,95045.00
2024-04-22T08:19:47.569Z,95045.00
2024-04-22T08:20:47.522Z,95044.00
2024-04-22T08:21:47.511Z,95040.00
2024-04-22T08:22:47.582Z,95043.00
2024-04-22T08:23:47.476Z,95041.00
2024-04-22T08:24:47.531Z,95041.00
2024-04-22T08:25:47.455Z,95041.00
2024-04-22T08:26:47.493Z,95042.00
2024-04-22T08:27:47.435Z,95042.00
2024-04-22T08:28:47.490Z,95041.00
2024-04-22T08:29:47.924Z,95039.00
2024-04-22T08:30:47.473Z,95040.00
2024-04-22T08:31:47.576Z,95037.00
2024-04-22T08:32:47.912Z,95037.00
2024-04-22T08:33:47.907Z,95034.00
2024-04-22T08:34:47.659Z,95036.00
2024-04-22T08:35:47.754Z,95034.00
2024-04-22T08:36:47.842Z,95031.00
2024-04-22T08:37:47.753Z,95034.00
2024-04-22T08:38:47.812Z,95035.00
2024-04-22T08:39:48.059Z,95034.00
2024-04-22T08:40:47.843Z,95033.00
2024-04-22T08:41:48.063Z,95035.00
2024-04-22T08:42:48.480Z,95035.00
2024-04-22T08:43:48.405Z,95035.00
2024-04-22T08:44:48.492Z,95036.00
2024-04-22T08:46:20.336Z,95035.00
2024-04-22T08:46:48.770Z,95035.00
2024-04-22T08:47:48.720Z,95035.00
2024-04-22T08:48:48.603Z,95031.00
2024-04-22T08:49:48.482Z,95034.00
2024-04-22T08:50:48.390Z,95035.00
2024-04-22T08:51:48.393Z,95031.00
2024-04-22T08:52:55.816Z,95032.00
2024-04-22T08:53:48.414Z,95027.00
2024-04-22T08:54:48.408Z,95028.00
2024-04-22T08:55:48.542Z,95028.00
2024-04-22T08:56:48.399Z,95026.00
2024-04-22T08:57:48.406Z,95024.00
2024-04-22T08:58:48.484Z,95026.00
2024-04-22T08:59:49.459Z,95023.00
2024-04-22T09:00:48.460Z,95022.00
2024-04-22T09:01:48.443Z,95025.00
2024-04-22T09:02:48.507Z,95023.00
2024-04-22T09:03:48.665Z,95024.00
2024-04-22T09:04:48.655Z,95024.00
2024-04-22T09:05:48.664Z,95022.00
2024-04-22T09:06:48.676Z,95024.00
2024-04-22T09:07:48.778Z,95022.00
2024-04-22T09:08:48.865Z,95021.00
2024-04-22T09:10:09.996Z,95019.00
2024-04-22T09:11:22.112Z,95018.00
2024-04-22T09:12:06.458Z,95018.00
2024-04-22T09:12:49.182Z,95015.00
2024-04-22T09:13:49.175Z,95014.00
2024-04-22T09:14:49.273Z,95012.00
2024-04-22T09:15:48.954Z,95010.00
2024-04-22T09:16:49.101Z,95010.00
2024-04-22T09:17:49.537Z,95008.00
2024-04-22T09:18:49.155Z,95007.00
2024-04-22T09:19:49.041Z,95007.00
2024-04-22T09:20:48.995Z,95006.00
2024-04-22T09:21:48.953Z,95005.00
2024-04-22T09:22:49.095Z,95008.00
2024-04-22T09:23:49.077Z,95007.00
2024-04-22T09:24:49.606Z,95006.00
2024-04-22T09:25:49.054Z,95007.00
2024-04-22T09:26:49.006Z,95004.00
2024-04-22T09:27:49.100Z,95004.00
2024-04-22T09:28:49.061Z,95003.00
2024-04-22T09:29:49.078Z,95004.00
2024-04-22T09:30:49.032Z,95003.00
2024-04-22T09:31:49.094Z,95002.00
2024-04-22T09:32:49.285Z,95004.00
2024-04-22T09:33:49.299Z,95001.00
2024-04-22T09:34:49.172Z,94998.00
2024-04-22T09:35:49.214Z,95001.00
2024-04-22T09:36:49.052Z,95000.00
2024-04-22T09:37:49.925Z,95000.00
2024-04-22T09:38:49.316Z,95001.00
2024-04-22T09:39:49.071Z,95001.00
2024-04-22T09:40:49.682Z,95004.00
2024-04-22T09:41:49.200Z,95004.00
2024-04-22T09:42:49.372Z,95006.00
2024-04-22T09:43:52.280Z,95007.00
2024-04-22T09:44:49.508Z,95008.00
2024-04-22T09:45:49.057Z,95007.00
2024-04-22T09:46:49.350Z,95005.00
2024-04-22T09:47:49.156Z,95004.00
2024-04-22T09:48:49.491Z,95003.00
2024-04-22T09:49:49.425Z,95008.00
2024-04-22T09:50:49.275Z,95007.00
2024-04-22T09:51:49.621Z,95004.00
2024-04-22T09:53:48.337Z,95011.00
2024-04-22T09:54:52.005Z,95008.00
2024-04-22T09:55:49.149Z,95008.00
2024-04-22T09:56:49.589Z,95003.00
2024-04-22T09:57:50.062Z,95006.00
2024-04-22T09:58:49.201Z,95009.00
2024-04-22T09:59:49.487Z,95010.00
2024-04-22T10:00:51.542Z,95011.00
2024-04-22T10:01:49.492Z,95007.00
2024-04-22T10:02:49.483Z,95007.00
2024-04-22T10:03:49.804Z,95007.00
2024-04-22T10:04:49.588Z,95011.00
2024-04-22T10:05:49.585Z,95005.00
2024-04-22T10:06:49.417Z,95006.00
2024-04-22T10:07:49.353Z,95004.00
2024-04-22T10:08:49.563Z,95003.00
2024-04-22T10:09:49.459Z,95003.00
2024-04-22T10:10:49.712Z,95004.00
2024-04-22T10:11:50.011Z,95003.00
2024-04-22T10:12:49.662Z,95000.00
2024-04-22T10:13:50.317Z,95003.00
2024-04-22T10:14:49.656Z,94998.00
2024-04-22T10:15:49.663Z,94999.00
2024-04-22T10:16:49.677Z,94999.00
2024-04-22T10:17:49.787Z,95000.00
2024-04-22T10:18:49.981Z,95001.00
2024-04-22T10:19:50.075Z,95000.00
2024-04-22T10:20:49.948Z,95001.00
2024-04-22T10:21:50.050Z,95000.00
2024-04-22T10:22:50.148Z,95000.00
2024-04-22T10:23:50.159Z,94998.00
2024-04-22T10:24:52.547Z,95000.00
2024-04-22T10:25:50.260Z,94998.00
2024-04-22T10:26:56.926Z,94998.00
2024-04-22T10:27:50.205Z,94999.00
2024-04-22T10:28:50.356Z,94995.00
2024-04-22T10:29:50.195Z,94992.00
2024-04-22T10:30:50.200Z,94995.00
2024-04-22T10:31:50.500Z,94997.00
2024-04-22T10:32:50.799Z,94995.00
2024-04-22T10:33:49.489Z,94995.00
2024-04-22T10:34:50.569Z,94995.00
2024-04-22T10:35:50.523Z,94995.00
2024-04-22T10:36:52.740Z,94998.00
2024-04-22T10:37:50.683Z,94989.00
2024-04-22T10:38:50.565Z,94990.00
2024-04-22T10:39:50.603Z,94990.00
2024-04-22T10:40:50.636Z,94987.00
2024-04-22T10:41:50.598Z,94988.00
2024-04-22T10:42:51.895Z,94986.00
2024-04-22T10:43:50.627Z,94986.00
2024-04-22T10:44:50.597Z,94982.00
2024-04-22T10:45:50.690Z,94983.00
2024-04-22T10:46:51.189Z,94979.00
2024-04-22T10:48:01.424Z,94981.00
2024-04-22T10:48:52.523Z,94976.00
2024-04-22T10:49:50.852Z,94975.00
2024-04-22T10:50:50.693Z,94975.00
2024-04-22T10:51:50.684Z,94976.00
2024-04-22T10:52:50.802Z,94974.00
2024-04-22T10:53:50.722Z,94974.00
2024-04-22T10:54:53.275Z,94975.00
2024-04-22T10:55:50.727Z,94970.00
2024-04-22T10:56:50.714Z,94965.00
2024-04-22T10:57:50.722Z,94966.00
2024-04-22T10:58:50.771Z,94967.00
2024-04-22T10:59:50.718Z,94962.00
2024-04-22T11:00:52.094Z,94962.00
2024-04-22T11:01:51.078Z,94962.00
2024-04-22T11:02:51.091Z,94961.00
2024-04-22T11:03:51.087Z,94961.00
2024-04-22T11:04:51.292Z,94958.00
2024-04-22T11:05:51.151Z,94963.00
2024-04-22T11:06:51.582Z,94961.00
2024-04-22T11:07:51.244Z,94961.00
2024-04-22T11:08:51.245Z,94961.00
2024-04-22T11:09:51.297Z,94965.00
2024-04-22T11:10:51.432Z,94960.00
2024-04-22T11:11:51.602Z,94960.00
2024-04-22T11:12:51.408Z,94956.00
2024-04-22T11:13:51.487Z,94957.00
2024-04-22T11:14:51.484Z,94955.00
2024-04-22T11:15:51.580Z,94956.00
2024-04-22T11:16:51.664Z,94956.00
2024-04-22T11:17:51.738Z,94953.00
2024-04-22T11:18:51.792Z,94955.00
2024-04-22T11:19:52.005Z,94952.00
2024-04-22T11:20:52.038Z,94955.00
2024-04-22T11:21:52.117Z,94954.00
2024-04-22T11:22:52.276Z,94953.00
2024-04-22T11:23:52.261Z,94952.00
2024-04-22T11:24:52.346Z,94953.00
2024-04-22T11:25:52.448Z,94954.00
2024-04-22T11:26:52.448Z,94956.00
2024-04-22T11:27:52.522Z,94955.00
2024-04-22T11:28:52.642Z,94954.00
2024-04-22T11:29:52.708Z,94951.00
2024-04-22T11:30:52.807Z,94949.00
2024-04-22T11:31:52.967Z,94950.00
2024-04-22T11:32:53.097Z,94949.00
2024-04-22T11:33:53.136Z,94952.00
2024-04-22T11:34:53.279Z,94952.00
2024-04-22T11:35:53.363Z,94952.00
2024-04-22T11:36:53.464Z,94947.00
2024-04-22T11:37:53.603Z,94950.00
2024-04-22T11:38:56.054Z,94950.00
2024-04-22T11:39:53.698Z,94946.00
2024-04-22T11:40:53.744Z,94942.00
2024-04-22T11:41:53.684Z,94943.00
2024-04-22T11:42:53.689Z,94944.00
2024-04-22T11:43:54.170Z,94943.00
2024-04-22T11:44:53.699Z,94946.00
2024-04-22T11:45:53.696Z,94946.00